EPA weather

El Palomar Airport
El Palomar, Buenos Aires Province, Argentina

Public forecast

Using degrees Celsius for public forecast. Weather courtesy of forecast.io.

Current aviation weather report (METAR) for El Palomar Airport

Report is more than 6 hours old.

Retrieved 2019/11/12 10:20 UTC (3 days ago):

SADP 121020Z 03011G21KT 350V050 9999 FEW016 BKN200 19/16 Q1015

Aviation forecast (TAF) for El Palomar Airport

Forecast is more than 12 hours old.

Retrieved 2019/10/17 12:21 UTC (29 days ago):

TAF SADP 171100Z 1712/1812 06010KT 6000 -DZ OVC012 TX18/1718Z TN11/1810Z TEMPO 1712/1717 4000 RADZ BKN005 OVC010 BECMG 1719/1721 22005KT 8000 -RADZ OVC015 BECMG 1722/1801 25010KT 9999 NSW BKN020 BECMG 1806/1808 27005KT 5000 BR SCT010